Nis, Serbia
Current Conditions -  °F | °C
As of 6:00 AM on Friday 31 Oct 2014 (Local Time) from LYNI Reporting Station
Broken Clouds Broken Clouds  
Wind Chill: 41°   Ceiling: 2700
Heat Index: 46°   Visibility: 5mi
Dew Point: 39°   Wind: 10mph
Humidity: 76%   Direction: 320°NW
Pressure: 30.27"   Gusts: NA
Location:  43.33°N, 21.9°E
Report Text: LYNI 310400Z 32009KT 290V350 8000 SCT013 BKN027 08/04 Q1025
Loading
Personal Weather Stations






























Interactive Weather Map New forecast layout! Learn more

10-Day Weather Forecast

Advertisements
Track Severe Weather on mobile